This is the latest recevied weather packets stored in our database for station/object OE7AOT-2. If no packets are shown the sender has not sent any weather packets the latest 10 day(s).
| Time | Temp. | Humidity | Pressure | Rain* | Wind** | Luminosity | Snow |
|---|---|---|---|---|---|---|---|
| 1777469022 | 25° C | 51% | 927.6 hPa | 0 mm | - | - | - |
| 1777468954 | 25.56° C | 51% | 927.7 hPa | 0 mm | - | - | - |
| 1777468885 | 26.11° C | 51% | 927.6 hPa | 0 mm | - | - | - |
| 1777468817 | 26.67° C | 50% | 927.7 hPa | 0 mm | - | - | - |
| 1777468748 | 27.22° C | 49% | 927.7 hPa | 0 mm | - | - | - |
| 1777468680 | 27.78° C | 48% | 927.6 hPa | 0 mm | - | - | - |
| 1777468611 | 28.33° C | 47% | 927.6 hPa | 0 mm | - | - | - |
| 1777468543 | 29.44° C | 46% | 927.6 hPa | 0 mm | - | - | - |
| 1777468474 | 30.56° C | 45% | 927.6 hPa | 0 mm | - | - | - |
| 1777468406 | 31.67° C | 45% | 927.6 hPa | 0 mm | - | - | - |
| 1777468338 | 32.22° C | 44% | 927.6 hPa | 0 mm | - | - | - |
| 1777468269 | 33.33° C | 43% | 927.4 hPa | 0 mm | - | - | - |
| 1777468201 | 35° C | 41% | 927.4 hPa | 0 mm | - | - | - |
| 1777468132 | 33.33° C | 43% | 927.5 hPa | 0 mm | - | - | - |
| 1777468064 | 30° C | 46% | 927.6 hPa | 0 mm | - | - | - |
| 1777467995 | 29.44° C | 47% | 927.5 hPa | 0 mm | - | - | - |
| 1777467927 | 30° C | 46% | 927.5 hPa | 0 mm | - | - | - |
| 1777467858 | 30° C | 46% | 927.6 hPa | 0 mm | - | - | - |
| 1777467790 | 30° C | 46% | 927.6 hPa | 0 mm | - | - | - |
| 1777467722 | 30.56° C | 46% | 927.5 hPa | 0 mm | - | - | - |
| 1777467653 | 31.11° C | 45% | 927.5 hPa | 0 mm | - | - | - |
| 1777467585 | 31.11° C | 45% | 927.5 hPa | 0 mm | - | - | - |
| 1777467516 | 31.11° C | 45% | 927.6 hPa | 0 mm | - | - | - |
| 1777467448 | 30.56° C | 45% | 927.6 hPa | 0 mm | - | - | - |
| 1777467379 | 31.11° C | 45% | 927.6 hPa | 0 mm | - | - | - |
* Rain latest hour (hover to see other rain measurements)
** Current wind speed in m/s (hover to see current wind gust speed)